North Falmouth, Massachusetts
Current Conditions -  °F | °C
As of 1:35 AM on Thursday 23 Oct 2014 (Local Time) from KFMH Reporting Station
Thunderstorm Thunderstorm  
Wind Chill: 14°   Ceiling: 500
Heat Index: 14°   Visibility: 10mi
Dew Point: 14°   Wind: 16mph
Humidity: 100%   Direction: 40°NE
Pressure: 29.65"   Gusts: 26mph
Location:  41.64°N, 70.63°W
Report Text: KFMH 230535Z 04014G23KT 10SM VCTS OVC005 14/14 A2965 RMK AO2 LTG DSNT ALQDS
Loading
Personal Weather Stations






























Interactive Weather Map
Tropical Storm Tracking
New forecast layout! Learn more

10-Day Weather Forecast

Advertisements
Track Severe Weather on mobile